Rosice, Czech Republic
Current Conditions -  °F | °C
As of 12:00 PM on Thursday 18 Dec 2014 (Local Time) from LKNA Reporting Station
Broken Clouds Broken Clouds  
Wind Chill: 40°   Ceiling: 4700
Heat Index: 45°   Visibility: 6mi
Dew Point: 41°   Wind: 9mph
Humidity: 87%   Direction: 240°WSW
Pressure: 29.97"   Gusts: NA
Location:  49.18°N, 16.38°E
Report Text: LKNA 181000Z 24008KT 9999 SCT017 BKN047 07/05 Q1015 NOSIG
Loading
Personal Weather Stations






























Interactive Weather Map New forecast layout! Learn more

10-Day Weather Forecast

Advertisements
Track Severe Weather on mobile